createdAt,value
2018-03-01T00:01:11.199Z,-7.80
2018-03-01T00:03:45.041Z,-7.70
2018-03-01T00:06:19.611Z,-7.80
2018-03-01T00:08:53.764Z,-7.80
2018-03-01T00:11:28.435Z,-7.70
2018-03-01T00:14:02.292Z,-7.80
2018-03-01T00:16:36.988Z,-7.80
2018-03-01T00:19:11.067Z,-7.80
2018-03-01T00:21:44.887Z,-7.80
2018-03-01T00:24:18.668Z,-7.80
2018-03-01T00:26:53.321Z,-7.80
2018-03-01T00:29:28.245Z,-7.80
2018-03-01T00:32:02.270Z,-7.80
2018-03-01T00:34:35.993Z,-7.80
2018-03-01T00:37:09.931Z,-7.80
2018-03-01T00:39:44.380Z,-7.80
2018-03-01T00:42:19.135Z,-7.80
2018-03-01T00:44:53.097Z,-7.80
2018-03-01T00:47:26.814Z,-7.80
2018-03-01T00:50:00.633Z,-7.80
2018-03-01T00:52:35.156Z,-7.80
2018-03-01T00:55:09.040Z,-7.80
2018-03-01T00:57:42.702Z,-7.80
2018-03-01T01:00:16.371Z,-7.90
2018-03-01T01:02:50.143Z,-7.80
2018-03-01T01:05:23.771Z,-7.80
2018-03-01T01:07:57.640Z,-7.80
2018-03-01T01:10:32.136Z,-7.80
2018-03-01T01:13:06.053Z,-7.80
2018-03-01T01:15:40.701Z,-7.80
2018-03-01T01:18:15.597Z,-7.90
2018-03-01T01:20:49.843Z,-7.80
2018-03-01T01:23:23.568Z,-7.90
2018-03-01T01:25:57.534Z,-7.90
2018-03-01T01:28:31.110Z,-7.80
2018-03-01T01:31:06.033Z,-7.90
2018-03-01T01:33:39.837Z,-7.90
2018-03-01T01:36:14.096Z,-7.90
2018-03-01T01:38:48.403Z,-7.80
2018-03-01T01:41:22.128Z,-7.90
2018-03-01T01:43:55.913Z,-7.90
2018-03-01T01:46:29.791Z,-7.90
2018-03-01T01:49:03.416Z,-7.80
2018-03-01T01:51:37.338Z,-7.80
2018-03-01T01:54:11.753Z,-7.80
2018-03-01T01:56:45.739Z,-7.80
2018-03-01T01:59:19.547Z,-7.80
2018-03-01T02:01:53.967Z,-7.80
2018-03-01T02:04:28.093Z,-7.80
2018-03-01T02:07:01.933Z,-7.80
2018-03-01T02:09:35.807Z,-7.70
2018-03-01T02:12:09.619Z,-7.70
2018-03-01T02:14:43.303Z,-7.70
2018-03-01T02:17:16.984Z,-7.80
2018-03-01T02:19:50.591Z,-7.70
2018-03-01T02:22:25.074Z,-7.70
2018-03-01T02:24:59.160Z,-7.70
2018-03-01T02:27:32.988Z,-7.70
2018-03-01T02:30:06.704Z,-7.80
2018-03-01T02:32:40.404Z,-7.80
2018-03-01T02:35:14.968Z,-7.80
2018-03-01T02:37:49.232Z,-7.80
2018-03-01T02:40:23.244Z,-7.70
2018-03-01T02:42:57.147Z,-7.70
2018-03-01T02:45:31.672Z,-7.80
2018-03-01T02:48:05.685Z,-7.80
2018-03-01T02:50:40.151Z,-7.80
2018-03-01T02:53:14.493Z,-7.80
2018-03-01T02:55:48.427Z,-7.80
2018-03-01T02:58:22.131Z,-7.80
2018-03-01T03:00:56.632Z,-7.80
2018-03-01T03:03:30.539Z,-7.80
2018-03-01T03:06:04.411Z,-7.80
2018-03-01T03:08:38.164Z,-7.80
2018-03-01T03:11:11.827Z,-7.80
2018-03-01T03:13:45.579Z,-7.80
2018-03-01T03:16:19.371Z,-7.80
2018-03-01T03:18:53.108Z,-7.80
2018-03-01T03:21:26.790Z,-7.80
2018-03-01T03:24:00.685Z,-7.80
2018-03-01T03:26:34.410Z,-7.80
2018-03-01T03:29:08.216Z,-7.80
2018-03-01T03:31:43.377Z,-7.80
2018-03-01T03:34:17.042Z,-7.80
2018-03-01T03:36:50.882Z,-7.80
2018-03-01T03:39:24.485Z,-7.80
2018-03-01T03:41:58.950Z,-7.80
2018-03-01T03:44:32.928Z,-7.80
2018-03-01T03:47:07.075Z,-7.80
2018-03-01T03:49:41.469Z,-7.90
2018-03-01T03:52:15.375Z,-7.90
2018-03-01T03:54:49.151Z,-7.90
2018-03-01T03:57:23.023Z,-7.90
2018-03-01T03:59:56.723Z,-7.90
2018-03-01T04:02:31.064Z,-7.90
2018-03-01T04:05:05.277Z,-7.90
2018-03-01T04:07:39.226Z,-8.00
2018-03-01T04:10:12.941Z,-8.00
2018-03-01T04:12:47.032Z,-8.00
2018-03-01T04:15:20.788Z,-8.10
2018-03-01T04:17:54.551Z,-8.00
2018-03-01T04:20:28.348Z,-8.10
2018-03-01T04:23:02.060Z,-8.10
2018-03-01T04:25:35.893Z,-8.10
2018-03-01T04:28:09.752Z,-8.10
2018-03-01T04:30:43.811Z,-8.20
2018-03-01T04:33:18.948Z,-8.20
2018-03-01T04:35:52.923Z,-8.20
2018-03-01T04:38:26.699Z,-8.10
2018-03-01T04:41:00.511Z,-8.10
2018-03-01T04:43:35.006Z,-8.20
2018-03-01T04:46:09.053Z,-8.10
2018-03-01T04:48:42.712Z,-8.20
2018-03-01T04:51:17.863Z,-8.10
2018-03-01T04:53:51.892Z,-7.30
2018-03-01T04:56:26.360Z,-8.10
2018-03-01T04:59:00.626Z,-8.10
2018-03-01T05:01:35.404Z,-8.20
2018-03-01T05:04:10.074Z,-8.20
2018-03-01T05:06:44.855Z,-8.20
2018-03-01T05:09:18.747Z,-8.20
2018-03-01T05:11:53.855Z,-8.30
2018-03-01T05:14:27.718Z,-8.30
2018-03-01T05:17:01.436Z,-8.20
2018-03-01T05:19:35.074Z,-9.00
2018-03-01T05:22:09.635Z,-8.30
2018-03-01T05:24:43.652Z,-8.30
2018-03-01T05:27:18.075Z,-8.30
2018-03-01T05:29:52.728Z,-8.20
2018-03-01T05:32:27.609Z,-8.30
2018-03-01T05:35:02.452Z,-8.30
2018-03-01T05:37:36.235Z,-8.40
2018-03-01T05:40:11.822Z,-8.40
2018-03-01T05:42:45.971Z,-8.40
2018-03-01T05:45:20.300Z,-8.40
2018-03-01T05:47:54.075Z,-8.40
2018-03-01T05:50:27.809Z,-8.50
2018-03-01T05:53:01.604Z,-8.40
2018-03-01T05:55:35.292Z,-8.40
2018-03-01T05:58:09.072Z,-8.40
2018-03-01T06:00:43.199Z,-8.40
2018-03-01T06:03:17.763Z,-8.40
2018-03-01T06:05:51.653Z,-8.30
2018-03-01T06:08:26.117Z,-8.30
2018-03-01T06:11:00.387Z,-8.30
2018-03-01T06:13:34.404Z,-8.30
2018-03-01T06:16:08.861Z,-8.30
2018-03-01T06:18:43.586Z,-8.30
2018-03-01T06:21:18.723Z,-8.30
2018-03-01T06:23:52.552Z,-8.30
2018-03-01T06:26:27.260Z,-8.20
2018-03-01T06:29:01.412Z,-8.20
2018-03-01T06:31:35.292Z,-8.20
2018-03-01T06:34:09.219Z,-7.80
2018-03-01T06:36:43.044Z,-8.10
2018-03-01T06:39:16.792Z,-8.00
2018-03-01T06:41:51.317Z,-8.00
2018-03-01T06:44:25.344Z,-7.90
2018-03-01T06:46:59.588Z,-7.90
2018-03-01T06:49:33.596Z,-7.90
2018-03-01T06:52:08.216Z,-7.80
2018-03-01T06:54:42.423Z,-7.80
2018-03-01T06:57:16.914Z,-7.80
2018-03-01T07:02:27.012Z,-7.70
2018-03-01T07:05:00.959Z,-7.30
2018-03-01T07:07:34.656Z,-6.40
2018-03-01T07:10:09.347Z,-5.40
2018-03-01T07:12:43.438Z,-4.80
2018-03-01T07:15:17.107Z,-3.90
2018-03-01T07:17:50.842Z,-3.20
2018-03-01T07:20:24.483Z,-2.80
2018-03-01T07:22:58.400Z,-2.50
2018-03-01T07:25:32.916Z,-3.10
2018-03-01T07:28:07.425Z,-3.70
2018-03-01T07:30:41.172Z,-4.20
2018-03-01T07:33:15.071Z,-4.90
2018-03-01T07:35:50.111Z,-5.20
2018-03-01T07:38:24.535Z,-4.90
2018-03-01T07:40:58.324Z,-4.40
2018-03-01T07:43:32.134Z,-4.30
2018-03-01T07:46:06.738Z,-3.50
2018-03-01T07:48:40.358Z,-3.40
2018-03-01T07:51:14.160Z,-3.80
2018-03-01T07:53:47.996Z,-4.00
2018-03-01T07:56:21.558Z,-3.90
2018-03-01T07:58:55.569Z,-3.80
2018-03-01T08:01:29.184Z,-4.30
2018-03-01T08:04:02.832Z,-3.60
2018-03-01T08:09:12.523Z,-2.70
2018-03-01T08:11:46.939Z,-2.60
2018-03-01T08:14:20.538Z,-2.90
2018-03-01T08:16:54.129Z,-3.20
2018-03-01T08:19:27.752Z,-3.20
2018-03-01T08:22:01.350Z,-2.70
2018-03-01T08:24:34.907Z,-2.70
2018-03-01T08:27:08.765Z,-2.00
2018-03-01T08:29:43.972Z,-1.00
2018-03-01T08:32:17.861Z,-1.00
2018-03-01T08:34:51.493Z,0.50
2018-03-01T08:37:25.458Z,1.40
2018-03-01T08:39:59.133Z,1.40
2018-03-01T08:42:33.037Z,1.50
2018-03-01T08:45:06.838Z,2.50
2018-03-01T08:47:41.436Z,2.80
2018-03-01T08:50:15.335Z,3.10
2018-03-01T08:52:49.171Z,4.10
2018-03-01T08:55:22.997Z,4.20
2018-03-01T08:57:56.970Z,5.40
2018-03-01T09:00:30.610Z,5.20
2018-03-01T09:03:05.128Z,5.40
2018-03-01T09:05:39.432Z,5.60
2018-03-01T09:08:12.982Z,5.90
2018-03-01T09:10:46.911Z,7.40
2018-03-01T09:13:21.580Z,7.10
2018-03-01T09:15:55.560Z,6.70
2018-03-01T09:18:29.445Z,7.30
2018-03-01T09:21:03.574Z,7.60
2018-03-01T09:23:37.815Z,7.90
2018-03-01T09:26:11.874Z,8.10
2018-03-01T09:28:45.609Z,8.20
2018-03-01T09:31:19.622Z,8.00
2018-03-01T09:33:53.933Z,9.00
2018-03-01T09:36:28.046Z,9.00
2018-03-01T09:39:02.084Z,9.20
2018-03-01T09:41:35.880Z,9.40
2018-03-01T09:44:09.817Z,9.40
2018-03-01T09:46:44.572Z,8.80
2018-03-01T09:49:18.558Z,8.80
2018-03-01T09:51:53.332Z,8.80
2018-03-01T09:54:27.251Z,8.80
2018-03-01T09:57:01.946Z,9.30
2018-03-01T09:59:36.708Z,9.60
2018-03-01T10:02:11.416Z,9.60
2018-03-01T10:04:45.427Z,9.40
2018-03-01T10:07:20.172Z,9.40
2018-03-01T10:09:54.095Z,9.40
2018-03-01T10:12:28.699Z,8.70
2018-03-01T10:15:02.800Z,8.60
2018-03-01T10:17:37.309Z,6.20
2018-03-01T10:20:11.419Z,6.20
2018-03-01T10:22:45.242Z,6.50
2018-03-01T10:25:19.056Z,7.50
2018-03-01T10:27:52.981Z,7.50
2018-03-01T10:30:26.719Z,6.30
2018-03-01T10:33:02.221Z,5.50
2018-03-01T10:35:36.538Z,5.50
2018-03-01T10:38:10.254Z,6.30
2018-03-01T10:40:44.978Z,6.50
2018-03-01T10:43:19.154Z,6.50
2018-03-01T10:45:53.530Z,6.50
2018-03-01T10:48:28.150Z,6.50
2018-03-01T10:51:02.233Z,6.50
2018-03-01T10:53:36.870Z,7.00
2018-03-01T10:56:11.468Z,7.00
2018-03-01T10:58:45.580Z,6.40
2018-03-01T11:01:19.496Z,6.10
2018-03-01T11:03:53.130Z,5.70
2018-03-01T11:06:27.512Z,5.50
2018-03-01T11:09:02.652Z,5.20
2018-03-01T11:11:36.714Z,5.20
2018-03-01T11:14:11.276Z,5.90
2018-03-01T11:16:45.275Z,5.90
2018-03-01T11:19:19.930Z,5.90
2018-03-01T11:21:54.177Z,5.60
2018-03-01T11:24:28.960Z,5.50
2018-03-01T11:27:03.923Z,5.80
2018-03-01T11:29:37.977Z,5.80
2018-03-01T11:32:12.458Z,5.20
2018-03-01T11:34:47.217Z,4.60
2018-03-01T11:37:20.918Z,4.60
2018-03-01T11:39:54.823Z,4.30
2018-03-01T11:42:30.001Z,4.30
2018-03-01T11:45:03.888Z,4.30
2018-03-01T11:47:37.814Z,4.90
2018-03-01T11:50:11.899Z,5.20
2018-03-01T11:52:47.188Z,4.70
2018-03-01T11:55:21.477Z,4.70
2018-03-01T11:57:56.645Z,3.50
2018-03-01T12:00:30.387Z,3.50
2018-03-01T12:03:04.434Z,3.20
2018-03-01T12:05:38.138Z,3.10
2018-03-01T12:08:11.982Z,3.00
2018-03-01T12:10:45.696Z,3.20
2018-03-01T12:13:19.609Z,3.70
2018-03-01T12:15:53.444Z,3.70
2018-03-01T12:18:27.257Z,3.50
2018-03-01T12:21:01.048Z,3.40
2018-03-01T12:23:35.825Z,2.80
2018-03-01T12:26:10.388Z,2.90
2018-03-01T12:28:44.479Z,2.80
2018-03-01T12:31:18.068Z,2.60
2018-03-01T12:33:52.064Z,2.60
2018-03-01T12:36:25.868Z,2.70
2018-03-01T12:39:00.509Z,3.00
2018-03-01T12:41:35.239Z,2.70
2018-03-01T12:44:09.302Z,2.50
2018-03-01T12:46:42.780Z,2.50
2018-03-01T12:49:16.586Z,2.20
2018-03-01T12:51:51.283Z,2.00
2018-03-01T12:54:26.084Z,2.10
2018-03-01T12:57:00.708Z,2.30
2018-03-01T12:59:34.718Z,2.30
2018-03-01T13:02:09.160Z,2.40
2018-03-01T13:04:44.585Z,2.30
2018-03-01T13:07:19.158Z,1.80
2018-03-01T13:12:28.475Z,1.50
2018-03-01T13:15:02.343Z,1.30
2018-03-01T13:17:35.998Z,1.30
2018-03-01T13:20:09.708Z,1.20
2018-03-01T13:22:43.480Z,1.20
2018-03-01T13:25:18.403Z,1.00
2018-03-01T13:27:52.731Z,0.90
2018-03-01T13:30:26.556Z,1.00
2018-03-01T13:33:20.955Z,1.20
2018-03-01T13:35:54.568Z,0.80
2018-03-01T13:38:29.769Z,0.60
2018-03-01T13:41:04.835Z,0.60
2018-03-01T13:43:38.703Z,0.60
2018-03-01T13:46:14.952Z,0.80
2018-03-01T13:48:48.957Z,0.70
2018-03-01T13:51:23.377Z,1.10
2018-03-01T13:53:57.396Z,0.80
2018-03-01T13:56:31.265Z,0.60
2018-03-01T13:59:05.852Z,0.40
2018-03-01T14:01:39.904Z,0.30
2018-03-01T14:04:14.372Z,0.50
2018-03-01T14:06:51.442Z,0.60
2018-03-01T14:09:25.272Z,0.60
2018-03-01T14:11:59.115Z,0.60
2018-03-01T14:14:35.035Z,0.70
2018-03-01T14:17:13.718Z,0.70
2018-03-01T14:19:50.495Z,0.30
2018-03-01T14:22:33.260Z,0.20
2018-03-01T14:25:17.065Z,0.20
2018-03-01T14:27:55.989Z,-0.20
2018-03-01T14:30:31.330Z,-0.10
2018-03-01T14:33:05.884Z,-0.10
2018-03-01T14:35:39.808Z,-0.10
2018-03-01T14:38:13.361Z,-0.30
2018-03-01T14:40:47.080Z,-0.40
2018-03-01T14:43:20.806Z,-0.50
2018-03-01T14:45:55.213Z,-0.40
2018-03-01T14:48:29.938Z,-0.40
2018-03-01T14:51:03.863Z,-0.60
2018-03-01T14:53:37.963Z,-0.90
2018-03-01T14:56:11.864Z,-1.00
2018-03-01T14:58:45.485Z,-1.00
2018-03-01T15:01:19.280Z,-0.90
2018-03-01T15:03:53.172Z,-1.10
2018-03-01T15:06:27.679Z,-1.20
2018-03-01T15:09:02.202Z,-1.30
2018-03-01T15:11:36.100Z,-1.40
2018-03-01T15:14:10.531Z,-1.40
2018-03-01T15:16:44.375Z,-1.40
2018-03-01T15:19:18.992Z,-1.40
2018-03-01T15:21:53.168Z,-1.40
2018-03-01T15:24:26.735Z,-1.40
2018-03-01T15:27:01.020Z,-1.40
2018-03-01T15:29:35.844Z,-1.60
2018-03-01T15:32:11.059Z,-1.70
2018-03-01T15:34:45.299Z,-1.90
2018-03-01T15:37:19.603Z,-2.00
2018-03-01T15:39:54.139Z,-2.00
2018-03-01T15:42:28.244Z,-2.10
2018-03-01T15:45:02.118Z,-2.00
2018-03-01T15:47:36.665Z,-2.00
2018-03-01T15:50:12.341Z,-2.00
2018-03-01T15:52:46.082Z,-2.10
2018-03-01T15:55:20.696Z,-2.20
2018-03-01T15:57:54.846Z,-2.20
2018-03-01T16:00:28.656Z,-2.30
2018-03-01T16:03:02.316Z,-2.50
2018-03-01T16:05:37.675Z,-2.60
2018-03-01T16:08:11.975Z,-2.60
2018-03-01T16:10:47.265Z,-2.80
2018-03-01T16:13:21.863Z,-2.80
2018-03-01T16:15:56.508Z,-2.80
2018-03-01T16:18:31.639Z,-2.70
2018-03-01T16:21:05.391Z,-2.80
2018-03-01T16:23:39.240Z,-2.80
2018-03-01T16:26:13.125Z,-2.90
2018-03-01T16:28:47.736Z,-3.00
2018-03-01T16:31:22.244Z,-3.00
2018-03-01T16:33:56.979Z,-3.10
2018-03-01T16:36:31.816Z,-3.10
2018-03-01T16:39:06.323Z,-3.20
2018-03-01T16:41:40.656Z,-3.30
2018-03-01T16:44:15.520Z,-3.40
2018-03-01T16:46:49.737Z,-3.40
2018-03-01T16:49:23.468Z,-3.50
2018-03-01T16:51:58.068Z,-3.50
2018-03-01T16:54:32.738Z,-3.60
2018-03-01T16:57:06.817Z,-3.60
2018-03-01T16:59:40.738Z,-3.60
2018-03-01T17:02:15.380Z,-3.60
2018-03-01T17:04:50.075Z,-3.60
2018-03-01T17:07:25.764Z,-3.70
2018-03-01T17:12:35.614Z,-3.70
2018-03-01T17:15:10.095Z,-3.80
2018-03-01T17:17:44.637Z,-3.90
2018-03-01T17:20:22.500Z,-3.90
2018-03-01T17:23:00.688Z,-4.00
2018-03-01T17:25:37.557Z,-4.00
2018-03-01T17:28:12.275Z,-4.10
2018-03-01T17:30:50.114Z,-4.00
2018-03-01T17:33:23.803Z,-4.00
2018-03-01T17:35:57.473Z,-4.10
2018-03-01T17:41:06.940Z,-4.10
2018-03-01T17:43:40.753Z,-4.10
2018-03-01T17:46:14.356Z,-4.20
2018-03-01T17:48:48.198Z,-4.10
2018-03-01T17:51:23.403Z,-4.20
2018-03-01T17:53:57.500Z,-4.20
2018-03-01T17:56:31.247Z,-4.20
2018-03-01T17:59:05.624Z,-4.20
2018-03-01T18:01:39.423Z,-4.30
2018-03-01T18:04:15.586Z,-4.30
2018-03-01T18:06:50.720Z,-4.30
2018-03-01T18:09:25.452Z,-4.30
2018-03-01T18:11:59.277Z,-4.20
2018-03-01T18:14:34.322Z,-4.20
2018-03-01T18:17:08.104Z,-4.20
2018-03-01T18:19:41.935Z,-2.80
2018-03-01T18:22:15.543Z,-4.20
2018-03-01T18:24:49.325Z,-4.30
2018-03-01T18:27:23.144Z,-4.40
2018-03-01T18:29:56.838Z,-4.40
2018-03-01T18:32:31.030Z,-4.40
2018-03-01T18:35:05.503Z,-4.50
2018-03-01T18:37:40.110Z,-4.50
2018-03-01T18:40:13.820Z,-4.50
2018-03-01T18:42:47.737Z,-4.60
2018-03-01T18:45:22.136Z,-4.60
2018-03-01T18:47:56.095Z,-4.60
2018-03-01T18:50:30.697Z,-4.60
2018-03-01T18:53:05.727Z,-3.70
2018-03-01T18:55:39.460Z,-4.70
2018-03-01T18:58:13.991Z,-4.80
2018-03-01T19:00:48.257Z,-4.80
2018-03-01T19:03:22.643Z,-4.80
2018-03-01T19:05:57.585Z,-4.80
2018-03-01T19:08:31.699Z,-4.80
2018-03-01T19:11:05.881Z,-4.90
2018-03-01T19:13:40.337Z,-4.90
2018-03-01T19:16:14.155Z,-4.90
2018-03-01T19:18:48.258Z,-4.90
2018-03-01T19:21:21.927Z,-4.90
2018-03-01T19:23:56.651Z,-5.00
2018-03-01T19:26:31.098Z,-4.90
2018-03-01T19:29:05.518Z,-4.90
2018-03-01T19:31:40.548Z,-4.90
2018-03-01T19:34:15.263Z,-5.00
2018-03-01T19:36:50.243Z,-5.00
2018-03-01T19:39:24.240Z,-5.00
2018-03-01T19:41:58.331Z,-5.10
2018-03-01T19:44:32.708Z,-5.10
2018-03-01T19:47:06.788Z,-5.10
2018-03-01T19:49:41.900Z,-5.10
2018-03-01T19:52:16.012Z,-5.10
2018-03-01T19:54:50.683Z,-5.20
2018-03-01T19:57:24.888Z,-5.20
2018-03-01T19:59:58.905Z,-5.20
2018-03-01T20:02:33.041Z,-5.20
2018-03-01T20:05:07.697Z,-5.20
2018-03-01T20:07:41.808Z,-5.20
2018-03-01T20:10:17.037Z,-5.20
2018-03-01T20:12:50.797Z,-5.20
2018-03-01T20:15:24.563Z,-5.20
2018-03-01T20:17:59.854Z,-5.20
2018-03-01T20:20:34.909Z,-5.30
2018-03-01T20:23:09.044Z,-5.30
2018-03-01T20:25:43.649Z,-5.20
2018-03-01T20:28:17.680Z,-5.30
2018-03-01T20:30:52.253Z,-5.30
2018-03-01T20:33:27.425Z,-5.30
2018-03-01T20:36:03.529Z,-5.20
2018-03-01T20:38:39.206Z,-5.20
2018-03-01T20:41:13.154Z,-5.20
2018-03-01T20:43:48.054Z,-5.30
2018-03-01T20:46:22.927Z,-5.30
2018-03-01T20:48:58.039Z,-5.30
2018-03-01T20:51:32.224Z,-5.40
2018-03-01T20:54:06.144Z,-5.40
2018-03-01T20:56:40.351Z,-5.40
2018-03-01T20:59:15.218Z,-5.50
2018-03-01T21:01:50.081Z,-5.50
2018-03-01T21:04:23.654Z,-5.60
2018-03-01T21:06:57.656Z,-5.60
2018-03-01T21:09:32.180Z,-5.70
2018-03-01T21:12:06.310Z,-4.70
2018-03-01T21:14:40.283Z,-5.70
2018-03-01T21:17:16.050Z,-5.80
2018-03-01T21:19:49.688Z,-5.80
2018-03-01T21:22:23.956Z,-5.80
2018-03-01T21:24:58.018Z,-5.80
2018-03-01T21:27:31.616Z,-5.80
2018-03-01T21:30:13.582Z,-5.90
2018-03-01T21:32:48.828Z,-5.90
2018-03-01T21:35:24.049Z,-5.90
2018-03-01T21:37:58.479Z,-5.90
2018-03-01T21:40:32.279Z,-5.90
2018-03-01T21:48:19.239Z,-5.10
2018-03-01T21:50:54.298Z,-6.00
2018-03-01T21:53:28.932Z,-6.00
2018-03-01T21:56:03.483Z,-6.00
2018-03-01T21:58:38.571Z,-6.00
2018-03-01T22:01:14.168Z,-6.10
2018-03-01T22:03:48.399Z,-6.10
2018-03-01T22:06:23.124Z,-6.10
2018-03-01T22:08:56.876Z,-6.10
2018-03-01T22:11:31.107Z,-6.20
2018-03-01T22:14:05.566Z,-6.20
2018-03-01T22:16:40.037Z,-6.20
2018-03-01T22:19:14.595Z,-6.20
2018-03-01T22:21:48.771Z,-6.30
2018-03-01T22:24:23.584Z,-6.30
2018-03-01T22:26:58.055Z,-6.30
2018-03-01T22:29:31.868Z,-6.30
2018-03-01T22:32:06.092Z,-6.30
2018-03-01T22:34:40.288Z,-6.40
2018-03-01T22:37:14.763Z,-6.40
2018-03-01T22:39:49.582Z,-6.40
2018-03-01T22:42:24.619Z,-6.40
2018-03-01T22:44:58.999Z,-6.30
2018-03-01T22:47:33.006Z,-6.40
2018-03-01T22:50:08.058Z,-6.40
2018-03-01T22:52:42.090Z,-6.50
2018-03-01T22:55:15.921Z,-6.50
2018-03-01T23:00:37.255Z,-6.60
2018-03-01T23:03:10.993Z,-6.60
2018-03-01T23:05:45.454Z,-6.60
2018-03-01T23:08:19.509Z,-6.60
2018-03-01T23:10:53.119Z,-6.60
2018-03-01T23:13:27.125Z,-6.60
2018-03-01T23:16:00.903Z,-6.70
2018-03-01T23:18:34.732Z,-6.70
2018-03-01T23:21:09.158Z,-6.80
2018-03-01T23:23:43.309Z,-6.80
2018-03-01T23:26:18.482Z,-6.80
2018-03-01T23:28:52.661Z,-6.80
2018-03-01T23:31:27.734Z,-6.80
2018-03-01T23:34:02.135Z,-6.80
2018-03-01T23:36:36.475Z,-6.90
2018-03-01T23:39:10.762Z,-6.90
2018-03-01T23:41:45.598Z,-6.90
2018-03-01T23:44:19.480Z,-6.90
2018-03-01T23:46:53.619Z,-7.00
2018-03-01T23:49:28.041Z,-7.00
2018-03-01T23:52:02.332Z,-7.00
2018-03-01T23:54:36.236Z,-7.00
2018-03-01T23:57:10.195Z,-7.00
2018-03-01T23:59:44.622Z,-7.10
